createdAt,value
2023-11-22T00:01:35.781Z,-6.32
2023-11-22T00:04:05.064Z,-6.31
2023-11-22T00:06:33.046Z,-6.31
2023-11-22T00:09:00.888Z,-6.31
2023-11-22T00:11:29.123Z,-6.34
2023-11-22T00:13:58.601Z,-6.43
2023-11-22T00:16:27.075Z,-6.50
2023-11-22T00:18:54.917Z,-6.55
2023-11-22T00:21:23.042Z,-6.57
2023-11-22T00:23:51.062Z,-6.58
2023-11-22T00:26:19.198Z,-6.59
2023-11-22T00:28:50.915Z,-6.60
2023-11-22T00:31:19.116Z,-6.59
2023-11-22T00:33:47.994Z,-6.55
2023-11-22T00:36:17.867Z,-6.52
2023-11-22T00:38:46.988Z,-6.49
2023-11-22T00:41:16.251Z,-6.44
2023-11-22T00:43:44.350Z,-6.41
2023-11-22T00:46:12.549Z,-6.39
2023-11-22T00:48:40.596Z,-6.34
2023-11-22T00:51:10.349Z,-6.30
2023-11-22T00:53:38.260Z,-6.26
2023-11-22T00:56:07.930Z,-6.23
2023-11-22T00:58:35.843Z,-6.22
2023-11-22T01:01:03.867Z,-6.19
2023-11-22T01:03:31.884Z,-6.15
2023-11-22T01:05:59.756Z,-6.10
2023-11-22T01:08:27.611Z,-6.03
2023-11-22T01:10:55.638Z,-6.00
2023-11-22T01:13:23.750Z,-5.95
2023-11-22T01:15:51.834Z,-5.90
2023-11-22T01:18:20.608Z,-5.84
2023-11-22T01:20:48.696Z,-5.81
2023-11-22T01:23:16.848Z,-5.79
2023-11-22T01:25:47.502Z,-5.78
2023-11-22T01:28:16.070Z,-5.75
2023-11-22T01:30:47.989Z,-5.73
2023-11-22T01:33:17.223Z,-5.71
2023-11-22T01:35:45.106Z,-5.69
2023-11-22T01:38:13.021Z,-5.66
2023-11-22T01:40:48.021Z,-5.62
2023-11-22T01:43:19.822Z,-5.59
2023-11-22T01:45:53.008Z,-5.55
2023-11-22T01:48:21.083Z,-5.50
2023-11-22T01:50:49.469Z,-5.47
2023-11-22T01:53:20.104Z,-5.45
2023-11-22T01:55:48.282Z,-5.45
2023-11-22T01:58:16.390Z,-5.43
2023-11-22T02:00:59.214Z,-5.39
2023-11-22T02:03:27.751Z,-5.36
2023-11-22T02:05:56.194Z,-5.34
2023-11-22T02:08:24.291Z,-5.32
2023-11-22T02:11:02.917Z,-5.28
2023-11-22T02:13:34.453Z,-5.25
2023-11-22T02:16:03.312Z,-5.22
2023-11-22T02:18:31.674Z,-5.19
2023-11-22T02:20:59.559Z,-5.18
2023-11-22T02:23:28.133Z,-5.15
2023-11-22T02:25:56.663Z,-5.13
2023-11-22T02:28:24.492Z,-5.11
2023-11-22T02:30:53.094Z,-5.09
2023-11-22T02:33:20.944Z,-5.07
2023-11-22T02:35:49.251Z,-5.05
2023-11-22T02:38:19.610Z,-5.04
2023-11-22T02:40:47.553Z,-5.02
2023-11-22T02:43:15.381Z,-5.00
2023-11-22T02:45:45.603Z,-4.99
2023-11-22T02:48:15.081Z,-4.96
2023-11-22T02:50:45.183Z,-4.93
2023-11-22T02:53:14.073Z,-4.90
2023-11-22T02:55:42.317Z,-4.87
2023-11-22T02:58:10.245Z,-4.85
2023-11-22T03:00:38.638Z,-4.83
2023-11-22T03:03:11.593Z,-4.80
2023-11-22T03:05:39.780Z,-4.79
2023-11-22T03:08:09.060Z,-4.78
2023-11-22T03:10:38.235Z,-4.76
2023-11-22T03:13:06.778Z,-4.73
2023-11-22T03:15:35.052Z,-4.70
2023-11-22T03:18:03.407Z,-4.68
2023-11-22T03:20:32.560Z,-4.65
2023-11-22T03:23:01.692Z,-4.62
2023-11-22T03:25:30.780Z,-4.59
2023-11-22T03:27:58.902Z,-4.58
2023-11-22T03:30:27.082Z,-4.58
2023-11-22T03:32:55.922Z,-4.55
2023-11-22T03:35:28.889Z,-4.52
2023-11-22T03:37:57.123Z,-4.49
2023-11-22T03:40:25.319Z,-4.46
2023-11-22T03:42:53.473Z,-4.44
2023-11-22T03:45:21.589Z,-4.43
2023-11-22T03:47:49.448Z,-4.40
2023-11-22T03:50:17.752Z,-4.39
2023-11-22T03:52:45.761Z,-4.36
2023-11-22T03:55:14.346Z,-4.34
2023-11-22T03:57:42.633Z,-4.32
2023-11-22T04:00:13.472Z,-4.30
2023-11-22T04:02:41.671Z,-4.28
2023-11-22T04:05:10.828Z,-4.26
2023-11-22T04:07:40.778Z,-4.26
2023-11-22T04:10:09.231Z,-4.26
2023-11-22T04:12:38.223Z,-4.26
2023-11-22T04:15:11.053Z,-4.28
2023-11-22T04:17:40.521Z,-4.28
2023-11-22T04:20:16.537Z,-4.29
2023-11-22T04:22:49.458Z,-4.28
2023-11-22T04:25:17.728Z,-4.29
2023-11-22T04:27:45.819Z,-4.28
2023-11-22T04:30:15.749Z,-4.27
2023-11-22T04:32:44.093Z,-4.25
2023-11-22T04:35:12.502Z,-4.25
2023-11-22T04:37:40.439Z,-4.24
2023-11-22T04:40:09.416Z,-4.22
2023-11-22T04:42:38.531Z,-4.19
2023-11-22T04:45:08.343Z,-4.17
2023-11-22T04:47:36.730Z,-4.15
2023-11-22T04:50:06.135Z,-4.14
2023-11-22T04:52:34.207Z,-4.13
2023-11-22T04:55:02.170Z,-4.11
2023-11-22T04:57:30.356Z,-4.10
2023-11-22T04:59:58.615Z,-4.10
2023-11-22T05:02:28.395Z,-4.09
2023-11-22T05:04:56.302Z,-4.07
2023-11-22T05:07:27.368Z,-4.07
2023-11-22T05:10:03.940Z,-4.06
2023-11-22T05:12:32.089Z,-4.03
2023-11-22T05:15:00.000Z,-4.01
2023-11-22T05:17:27.981Z,-4.00
2023-11-22T05:19:55.890Z,-3.99
2023-11-22T05:22:24.275Z,-3.98
2023-11-22T05:24:52.153Z,-3.96
2023-11-22T05:27:22.164Z,-3.95
2023-11-22T05:29:55.054Z,-3.94
2023-11-22T05:32:30.493Z,-3.93
2023-11-22T05:34:58.775Z,-3.92
2023-11-22T05:37:27.733Z,-3.93
2023-11-22T05:39:56.881Z,-3.96
2023-11-22T05:42:26.248Z,-3.99
2023-11-22T05:44:54.424Z,-4.01
2023-11-22T05:47:22.329Z,-4.01
2023-11-22T05:49:50.721Z,-4.02
2023-11-22T05:52:18.857Z,-4.03
2023-11-22T05:54:46.839Z,-4.03
2023-11-22T05:57:14.709Z,-4.03
2023-11-22T05:59:42.588Z,-4.01
2023-11-22T06:02:10.666Z,-4.01
2023-11-22T06:04:39.571Z,-4.02
2023-11-22T06:07:09.888Z,-4.00
2023-11-22T06:09:37.700Z,-3.99
2023-11-22T06:12:06.624Z,-3.95
2023-11-22T06:14:34.605Z,-3.92
2023-11-22T06:17:02.838Z,-3.86
2023-11-22T06:19:30.719Z,-3.81
2023-11-22T06:22:03.907Z,-3.78
2023-11-22T06:24:37.515Z,-3.74
2023-11-22T06:27:06.938Z,-3.71
2023-11-22T06:29:34.902Z,-3.68
2023-11-22T06:32:02.658Z,-3.66
2023-11-22T06:34:30.601Z,-3.65
2023-11-22T06:36:58.986Z,-3.64
2023-11-22T06:39:28.334Z,-3.63
2023-11-22T06:41:56.561Z,-3.61
2023-11-22T06:44:24.679Z,-3.62
2023-11-22T06:46:53.316Z,-3.62
2023-11-22T06:49:22.208Z,-3.60
2023-11-22T06:51:50.388Z,-3.57
2023-11-22T06:54:19.996Z,-3.54
2023-11-22T06:56:51.708Z,-3.47
2023-11-22T06:59:20.303Z,-3.41
2023-11-22T07:01:48.243Z,-3.34
2023-11-22T07:04:16.265Z,-3.27
2023-11-22T07:06:45.692Z,-3.18
2023-11-22T07:09:15.323Z,-3.09
2023-11-22T07:11:45.877Z,-2.96
2023-11-22T07:14:13.864Z,-2.83
2023-11-22T07:16:42.402Z,-2.73
2023-11-22T07:19:14.042Z,-2.68
2023-11-22T07:21:42.359Z,-2.65
2023-11-22T07:24:10.609Z,-2.61
2023-11-22T07:26:41.698Z,-2.57
2023-11-22T07:29:11.756Z,-2.54
2023-11-22T07:31:42.009Z,-2.50
2023-11-22T07:34:14.432Z,-2.50
2023-11-22T07:36:42.333Z,-2.55
2023-11-22T07:39:13.392Z,-2.60
2023-11-22T07:41:43.135Z,-2.65
2023-11-22T07:44:14.632Z,-2.67
2023-11-22T07:46:45.411Z,-2.66
2023-11-22T07:49:15.261Z,-2.64
2023-11-22T07:53:57.172Z,-2.61
2023-11-22T07:56:25.365Z,-2.62
2023-11-22T07:58:53.223Z,-2.62
2023-11-22T08:01:24.935Z,-2.61
2023-11-22T08:03:53.454Z,-2.64
2023-11-22T08:06:22.759Z,-2.68
2023-11-22T08:08:55.633Z,-2.68
2023-11-22T08:11:23.627Z,-2.69
2023-11-22T08:13:51.477Z,-2.71
2023-11-22T08:16:21.739Z,-2.68
2023-11-22T08:18:51.016Z,-2.64
2023-11-22T08:21:19.897Z,-2.60
2023-11-22T08:23:51.298Z,-2.59
2023-11-22T08:26:23.033Z,-2.55
2023-11-22T08:28:58.174Z,-2.53
2023-11-22T08:31:29.336Z,-2.45
2023-11-22T08:33:58.174Z,-2.37
2023-11-22T08:36:26.886Z,-2.24
2023-11-22T08:38:55.280Z,-2.17
2023-11-22T08:41:25.281Z,-2.10
2023-11-22T08:43:53.737Z,-2.04
2023-11-22T08:46:21.630Z,-2.00
2023-11-22T08:48:49.883Z,-1.99
2023-11-22T08:51:19.788Z,-1.98
2023-11-22T08:53:48.018Z,-2.02
2023-11-22T08:56:17.398Z,-2.12
2023-11-22T08:58:45.839Z,-2.20
2023-11-22T09:01:16.134Z,-2.24
2023-11-22T09:03:45.408Z,-2.27
2023-11-22T09:06:14.568Z,-2.26
2023-11-22T09:08:42.769Z,-2.25
2023-11-22T09:11:11.687Z,-2.26
2023-11-22T09:13:49.868Z,-2.28
2023-11-22T09:16:19.842Z,-2.27
2023-11-22T09:18:49.566Z,-2.23
2023-11-22T09:21:20.622Z,-2.19
2023-11-22T09:23:53.747Z,-2.19
2023-11-22T09:26:23.007Z,-2.21
2023-11-22T09:28:51.273Z,-2.21
2023-11-22T09:31:21.900Z,-2.20
2023-11-22T09:33:49.808Z,-2.20
2023-11-22T09:36:19.540Z,-2.19
2023-11-22T09:38:48.801Z,-2.16
2023-11-22T09:41:20.064Z,-2.10
2023-11-22T09:44:00.652Z,-2.00
2023-11-22T09:46:34.263Z,-1.92
2023-11-22T09:49:05.541Z,-1.89
2023-11-22T09:51:44.401Z,-1.82
2023-11-22T09:54:15.727Z,-1.72
2023-11-22T09:56:54.670Z,-1.67
2023-11-22T09:59:24.936Z,-1.61
2023-11-22T10:02:01.057Z,-1.63
2023-11-22T10:04:30.631Z,-1.64
2023-11-22T10:07:01.570Z,-1.66
2023-11-22T10:09:31.311Z,-1.68
2023-11-22T10:12:04.171Z,-1.69
2023-11-22T10:14:46.115Z,-1.71
2023-11-22T10:17:31.734Z,-1.76
2023-11-22T10:20:12.630Z,-1.78
2023-11-22T10:22:50.536Z,-1.83
2023-11-22T10:25:25.509Z,-1.85
2023-11-22T10:27:57.048Z,-1.87
2023-11-22T10:30:30.342Z,-1.87
2023-11-22T10:32:59.011Z,-1.88
2023-11-22T10:35:47.453Z,-1.91
2023-11-22T10:38:19.855Z,-1.92
2023-11-22T10:40:53.668Z,-1.89
2023-11-22T10:43:33.894Z,-1.86
2023-11-22T10:46:13.683Z,-1.88
2023-11-22T10:48:42.044Z,-1.94
2023-11-22T10:51:10.998Z,-1.95
2023-11-22T10:53:41.693Z,-1.93
2023-11-22T10:56:29.717Z,-1.93
2023-11-22T10:59:15.603Z,-1.93
2023-11-22T11:01:54.550Z,-1.96
2023-11-22T11:04:33.818Z,-1.96
2023-11-22T11:07:17.250Z,-1.95
2023-11-22T11:09:52.451Z,-1.93
2023-11-22T11:12:29.583Z,-1.92
2023-11-22T11:15:22.946Z,-1.92
2023-11-22T11:18:02.844Z,-1.94
2023-11-22T11:20:49.164Z,-1.95
2023-11-22T11:23:30.148Z,-1.94
2023-11-22T11:26:02.030Z,-1.96
2023-11-22T11:28:47.316Z,-1.97
2023-11-22T11:31:15.846Z,-2.01
2023-11-22T11:33:49.890Z,-2.00
2023-11-22T11:36:33.362Z,-2.01
2023-11-22T11:39:16.964Z,-2.00
2023-11-22T11:41:50.579Z,-1.97
2023-11-22T11:44:25.742Z,-1.97
2023-11-22T11:46:59.401Z,-1.96
2023-11-22T11:49:30.667Z,-1.97
2023-11-22T11:52:01.413Z,-1.99
2023-11-22T11:54:29.372Z,-2.01
2023-11-22T11:57:03.573Z,-2.01
2023-11-22T11:59:42.042Z,-2.01
2023-11-22T12:02:28.188Z,-2.03
2023-11-22T12:05:11.161Z,-2.02
2023-11-22T12:07:48.181Z,-2.05
2023-11-22T12:10:24.455Z,-2.06
2023-11-22T12:13:11.160Z,-2.06
2023-11-22T12:15:43.731Z,-2.10
2023-11-22T12:18:19.003Z,-2.14
2023-11-22T12:21:00.837Z,-2.18
2023-11-22T12:23:31.431Z,-2.19
2023-11-22T12:25:59.791Z,-2.20
2023-11-22T12:28:34.643Z,-2.19
2023-11-22T12:31:16.600Z,-2.21
2023-11-22T12:33:44.887Z,-2.23
2023-11-22T12:36:17.878Z,-2.25
2023-11-22T12:39:00.295Z,-2.23
2023-11-22T12:41:33.091Z,-2.23
2023-11-22T12:44:11.783Z,-2.25
2023-11-22T12:47:03.138Z,-2.24
2023-11-22T12:49:31.205Z,-2.24
2023-11-22T12:51:59.236Z,-2.25
2023-11-22T12:54:27.705Z,-2.27
2023-11-22T12:57:07.408Z,-2.30
2023-11-22T12:59:35.765Z,-2.33
2023-11-22T13:02:04.435Z,-2.36
2023-11-22T13:04:32.768Z,-2.38
2023-11-22T13:07:01.863Z,-2.38
2023-11-22T13:09:38.653Z,-2.39
2023-11-22T13:12:12.415Z,-2.40
2023-11-22T13:14:45.749Z,-2.42
2023-11-22T13:17:26.378Z,-2.43
2023-11-22T13:20:01.592Z,-2.43
2023-11-22T13:22:44.418Z,-2.43
2023-11-22T13:25:14.929Z,-2.46
2023-11-22T13:27:42.700Z,-2.44
2023-11-22T13:30:11.584Z,-2.44
2023-11-22T13:32:42.846Z,-2.43
2023-11-22T13:35:19.324Z,-2.45
2023-11-22T13:37:53.934Z,-2.52
2023-11-22T13:40:34.696Z,-2.56
2023-11-22T13:43:05.832Z,-2.60
2023-11-22T13:45:47.849Z,-2.64
2023-11-22T13:48:20.997Z,-2.68
2023-11-22T13:50:53.848Z,-2.71
2023-11-22T13:53:23.723Z,-2.72
2023-11-22T13:55:53.896Z,-2.75
2023-11-22T13:58:21.823Z,-2.77
2023-11-22T14:00:51.473Z,-2.80
2023-11-22T14:03:40.917Z,-2.84
2023-11-22T14:06:25.974Z,-2.88
2023-11-22T14:09:04.571Z,-2.92
2023-11-22T14:11:39.038Z,-2.97
2023-11-22T14:14:14.634Z,-3.04
2023-11-22T14:16:46.239Z,-3.10
2023-11-22T14:19:18.694Z,-3.15
2023-11-22T14:21:46.905Z,-3.17
2023-11-22T14:24:14.732Z,-3.19
2023-11-22T14:26:42.694Z,-3.22
2023-11-22T14:29:10.774Z,-3.25
2023-11-22T14:31:38.871Z,-3.29
2023-11-22T14:34:07.033Z,-3.32
2023-11-22T14:36:35.294Z,-3.33
2023-11-22T14:39:14.023Z,-3.36
2023-11-22T14:41:43.697Z,-3.40
2023-11-22T14:44:11.600Z,-3.42
2023-11-22T14:46:39.687Z,-3.43
2023-11-22T14:49:10.092Z,-3.45
2023-11-22T14:51:49.838Z,-3.44
2023-11-22T14:54:18.872Z,-3.48
2023-11-22T14:56:47.464Z,-3.51
2023-11-22T14:59:15.383Z,-3.54
2023-11-22T15:01:45.734Z,-3.59
2023-11-22T15:04:20.571Z,-3.64
2023-11-22T15:06:54.248Z,-3.66
2023-11-22T15:09:28.504Z,-3.68
2023-11-22T15:11:56.560Z,-3.70
2023-11-22T15:14:24.844Z,-3.72
2023-11-22T15:16:53.622Z,-3.77
2023-11-22T15:19:26.481Z,-3.79
2023-11-22T15:21:59.210Z,-3.82
2023-11-22T15:24:27.893Z,-3.85
2023-11-22T15:27:09.858Z,-3.88
2023-11-22T15:29:42.775Z,-3.89
2023-11-22T15:32:10.798Z,-3.88
2023-11-22T15:34:39.294Z,-3.86
2023-11-22T15:37:08.218Z,-3.85
2023-11-22T15:39:36.555Z,-3.88
2023-11-22T15:42:07.000Z,-3.89
2023-11-22T15:44:38.192Z,-3.90
2023-11-22T15:47:12.881Z,-3.93
2023-11-22T15:49:43.178Z,-3.96
2023-11-22T15:52:14.120Z,-3.96
2023-11-22T15:54:42.089Z,-3.97
2023-11-22T15:57:10.783Z,-3.98
2023-11-22T15:59:40.137Z,-3.98
2023-11-22T16:02:08.660Z,-3.98
2023-11-22T16:04:38.378Z,-3.97
2023-11-22T16:07:07.563Z,-3.98
2023-11-22T16:09:40.092Z,-3.97
2023-11-22T16:12:08.846Z,-3.97
2023-11-22T16:14:37.097Z,-3.96
2023-11-22T16:17:06.416Z,-3.96
2023-11-22T16:19:34.170Z,-3.97
2023-11-22T16:22:02.064Z,-3.97
2023-11-22T16:24:30.111Z,-3.96
2023-11-22T16:26:58.598Z,-3.93
2023-11-22T16:29:26.894Z,-3.90
2023-11-22T16:31:54.882Z,-3.88
2023-11-22T16:34:23.320Z,-3.88
2023-11-22T16:36:56.418Z,-3.87
2023-11-22T16:39:29.798Z,-3.86
2023-11-22T16:42:01.008Z,-3.86
2023-11-22T16:44:30.027Z,-3.86
2023-11-22T16:47:00.145Z,-3.88
2023-11-22T16:49:28.541Z,-3.92
2023-11-22T16:51:56.924Z,-3.95
2023-11-22T16:54:24.788Z,-3.98
2023-11-22T16:56:52.829Z,-4.00
2023-11-22T16:59:20.842Z,-4.02
2023-11-22T17:01:49.138Z,-4.04
2023-11-22T17:04:18.093Z,-4.04
2023-11-22T17:06:45.966Z,-4.05
2023-11-22T17:09:17.395Z,-4.05
2023-11-22T17:11:46.325Z,-4.05
2023-11-22T17:14:14.582Z,-4.09
2023-11-22T17:16:45.237Z,-4.10
2023-11-22T17:19:14.415Z,-4.10
2023-11-22T17:21:42.691Z,-4.11
2023-11-22T17:24:11.584Z,-4.12
2023-11-22T17:26:40.083Z,-4.13
2023-11-22T17:29:08.156Z,-4.15
2023-11-22T17:31:36.521Z,-4.17
2023-11-22T17:34:04.918Z,-4.20
2023-11-22T17:36:33.548Z,-4.23
2023-11-22T17:39:01.584Z,-4.25
2023-11-22T17:41:29.880Z,-4.27
2023-11-22T17:43:58.735Z,-4.28
2023-11-22T17:46:28.007Z,-4.29
2023-11-22T17:48:58.186Z,-4.30
2023-11-22T17:51:28.367Z,-4.32
2023-11-22T17:53:56.651Z,-4.32
2023-11-22T17:56:25.260Z,-4.33
2023-11-22T17:58:53.300Z,-4.32
2023-11-22T18:01:21.894Z,-4.33
2023-11-22T18:03:52.501Z,-4.34
2023-11-22T18:06:20.929Z,-4.34
2023-11-22T18:08:48.951Z,-4.34
2023-11-22T18:11:17.596Z,-4.33
2023-11-22T18:13:46.229Z,-4.33
2023-11-22T18:16:14.016Z,-4.33
2023-11-22T18:18:42.630Z,-4.33
2023-11-22T18:21:11.911Z,-4.34
2023-11-22T18:23:39.988Z,-4.35
2023-11-22T18:26:07.821Z,-4.36
2023-11-22T18:28:36.332Z,-4.36
2023-11-22T18:31:07.458Z,-4.36
2023-11-22T18:33:36.455Z,-4.36
2023-11-22T18:38:50.761Z,-4.40
2023-11-22T18:41:20.840Z,-4.42
2023-11-22T18:43:49.444Z,-4.42
2023-11-22T18:46:18.268Z,-4.43
2023-11-22T18:48:46.882Z,-4.44
2023-11-22T18:51:28.676Z,-4.42
2023-11-22T18:53:57.507Z,-4.44
2023-11-22T18:56:26.556Z,-4.47
2023-11-22T18:58:56.458Z,-4.49
2023-11-22T19:01:24.667Z,-4.50
2023-11-22T19:03:52.827Z,-4.50
2023-11-22T19:06:20.919Z,-4.50
2023-11-22T19:08:49.318Z,-4.51
2023-11-22T19:11:18.712Z,-4.51
2023-11-22T19:13:47.056Z,-4.52
2023-11-22T19:16:15.278Z,-4.51
2023-11-22T19:18:46.942Z,-4.49
2023-11-22T19:21:23.045Z,-4.47
2023-11-22T19:23:56.388Z,-4.44
2023-11-22T19:26:24.932Z,-4.41
2023-11-22T19:28:53.629Z,-4.41
2023-11-22T19:31:24.189Z,-4.40
2023-11-22T19:33:52.314Z,-4.45
2023-11-22T19:36:24.467Z,-4.48
2023-11-22T19:38:55.934Z,-4.50
2023-11-22T19:41:24.993Z,-4.52
2023-11-22T19:43:53.855Z,-4.55
2023-11-22T19:46:21.840Z,-4.58
2023-11-22T19:48:49.921Z,-4.61
2023-11-22T19:51:18.957Z,-4.63
2023-11-22T19:53:47.089Z,-4.67
2023-11-22T19:56:15.523Z,-4.70
2023-11-22T19:58:43.380Z,-4.72
2023-11-22T20:01:11.488Z,-4.74
2023-11-22T20:03:39.465Z,-4.76
2023-11-22T20:06:07.450Z,-4.77
2023-11-22T20:08:37.211Z,-4.79
2023-11-22T20:12:17.782Z,-4.79
2023-11-22T20:14:46.012Z,-4.82
2023-11-22T20:17:13.946Z,-4.83
2023-11-22T20:19:41.882Z,-4.85
2023-11-22T20:22:13.682Z,-4.85
2023-11-22T20:24:41.925Z,-4.85
2023-11-22T20:27:09.844Z,-4.84
2023-11-22T20:29:40.025Z,-4.82
2023-11-22T20:32:08.084Z,-4.83
2023-11-22T20:34:36.017Z,-4.83
2023-11-22T20:37:05.146Z,-4.82
2023-11-22T20:39:33.731Z,-4.80
2023-11-22T20:42:01.624Z,-4.81
2023-11-22T20:44:29.669Z,-4.80
2023-11-22T20:46:57.951Z,-4.80
2023-11-22T20:49:27.508Z,-4.80
2023-11-22T20:51:55.733Z,-4.80
2023-11-22T20:54:23.600Z,-4.79
2023-11-22T20:56:51.788Z,-4.78
2023-11-22T20:59:19.739Z,-4.77
2023-11-22T21:01:49.398Z,-4.76
2023-11-22T21:04:17.528Z,-4.75
2023-11-22T21:06:46.747Z,-4.72
2023-11-22T21:09:15.021Z,-4.69
2023-11-22T21:11:43.441Z,-4.67
2023-11-22T21:14:11.912Z,-4.65
2023-11-22T21:16:44.193Z,-4.64
2023-11-22T21:19:15.116Z,-4.63
2023-11-22T21:21:43.247Z,-4.61
2023-11-22T21:24:11.413Z,-4.61
2023-11-22T21:26:39.615Z,-4.62
2023-11-22T21:29:07.867Z,-4.62
2023-11-22T21:31:35.733Z,-4.61
2023-11-22T21:34:04.150Z,-4.59
2023-11-22T21:36:36.916Z,-4.59
2023-11-22T21:39:13.926Z,-4.57
2023-11-22T21:41:50.481Z,-4.56
2023-11-22T21:44:21.703Z,-4.52
2023-11-22T21:46:49.640Z,-4.50
2023-11-22T21:49:17.874Z,-4.50
2023-11-22T21:51:48.201Z,-4.49
2023-11-22T21:54:16.150Z,-4.49
2023-11-22T21:56:44.823Z,-4.49
2023-11-22T21:59:13.463Z,-4.48
2023-11-22T22:01:42.343Z,-4.48
2023-11-22T22:04:10.980Z,-4.46
2023-11-22T22:06:39.458Z,-4.45
2023-11-22T22:09:18.042Z,-4.44
2023-11-22T22:11:56.119Z,-4.43
2023-11-22T22:14:25.524Z,-4.41
2023-11-22T22:16:54.487Z,-4.39
2023-11-22T22:19:22.980Z,-4.38
2023-11-22T22:21:50.931Z,-4.37
2023-11-22T22:24:19.072Z,-4.36
2023-11-22T22:26:47.317Z,-4.37
2023-11-22T22:29:15.350Z,-4.36
2023-11-22T22:31:43.120Z,-4.35
2023-11-22T22:34:10.985Z,-4.35
2023-11-22T22:36:40.531Z,-4.31
2023-11-22T22:39:08.808Z,-4.27
2023-11-22T22:41:36.770Z,-4.22
2023-11-22T22:44:05.833Z,-4.18
2023-11-22T22:46:34.473Z,-4.15
2023-11-22T22:49:03.006Z,-4.13
2023-11-22T22:51:32.705Z,-4.13
2023-11-22T22:54:04.417Z,-4.11
2023-11-22T22:56:32.741Z,-4.09
2023-11-22T22:59:01.289Z,-4.08
2023-11-22T23:01:31.634Z,-4.07
2023-11-22T23:03:59.900Z,-4.07
2023-11-22T23:06:28.204Z,-4.06
2023-11-22T23:08:57.363Z,-4.05
2023-11-22T23:11:26.138Z,-4.07
2023-11-22T23:13:54.059Z,-4.07
2023-11-22T23:16:22.042Z,-4.07
2023-11-22T23:18:57.966Z,-4.05
2023-11-22T23:21:29.181Z,-4.06
2023-11-22T23:23:57.535Z,-4.05
2023-11-22T23:26:27.073Z,-4.05
2023-11-22T23:28:56.055Z,-4.04
2023-11-22T23:31:24.189Z,-4.04
2023-11-22T23:33:54.366Z,-4.06
2023-11-22T23:36:23.927Z,-4.11
2023-11-22T23:38:52.207Z,-4.13
2023-11-22T23:41:20.255Z,-4.16
2023-11-22T23:43:48.120Z,-4.18
2023-11-22T23:46:16.233Z,-4.20
2023-11-22T23:48:44.751Z,-4.22
2023-11-22T23:51:12.952Z,-4.23
2023-11-22T23:53:41.268Z,-4.24
2023-11-22T23:56:11.763Z,-4.24
2023-11-22T23:58:41.084Z,-4.25
